sensor_id;sensor_type;location;lat;lon;timestamp;pressure;altitude;pressure_sealevel;temperature;humidity
60974;BME280;46846;51.528;5.076;2023-03-13T00:00:56;99727.72;;;6.46;85.12
60974;BME280;46846;51.528;5.076;2023-03-13T00:03:22;99725.13;;;6.44;85.02
60974;BME280;46846;51.528;5.076;2023-03-13T00:05:47;99724.38;;;6.40;84.82
60974;BME280;46846;51.528;5.076;2023-03-13T00:08:13;99712.78;;;6.45;85.40
60974;BME280;46846;51.528;5.076;2023-03-13T00:10:39;99703.22;;;6.40;85.65
60974;BME280;46846;51.528;5.076;2023-03-13T00:13:06;99700.63;;;6.39;85.38
60974;BME280;46846;51.528;5.076;2023-03-13T00:15:32;99698.28;;;6.31;85.28
60974;BME280;46846;51.528;5.076;2023-03-13T00:17:58;99692.78;;;6.37;85.35
60974;BME280;46846;51.528;5.076;2023-03-13T00:20:23;99683.81;;;6.41;85.10
60974;BME280;46846;51.528;5.076;2023-03-13T00:22:49;99684.91;;;6.36;84.98
60974;BME280;46846;51.528;5.076;2023-03-13T00:25:14;99677.00;;;6.34;85.47
60974;BME280;46846;51.528;5.076;2023-03-13T00:27:39;99663.63;;;6.39;85.05
60974;BME280;46846;51.528;5.076;2023-03-13T00:30:05;99655.88;;;6.34;85.61
60974;BME280;46846;51.528;5.076;2023-03-13T00:32:30;99650.59;;;6.34;85.51
60974;BME280;46846;51.528;5.076;2023-03-13T00:34:56;99647.03;;;6.35;85.57
60974;BME280;46846;51.528;5.076;2023-03-13T00:37:21;99638.78;;;6.45;86.75
60974;BME280;46846;51.528;5.076;2023-03-13T00:39:47;99629.41;;;6.36;86.03
60974;BME280;46846;51.528;5.076;2023-03-13T00:42:12;99624.06;;;6.37;86.02
60974;BME280;46846;51.528;5.076;2023-03-13T00:44:37;99622.34;;;6.36;85.58
60974;BME280;46846;51.528;5.076;2023-03-13T00:47:03;99625.78;;;6.38;85.81
60974;BME280;46846;51.528;5.076;2023-03-13T00:49:30;99613.59;;;6.34;85.73
60974;BME280;46846;51.528;5.076;2023-03-13T00:51:55;99607.53;;;6.32;85.79
60974;BME280;46846;51.528;5.076;2023-03-13T00:54:21;99599.47;;;6.35;85.73
60974;BME280;46846;51.528;5.076;2023-03-13T00:56:46;99582.72;;;6.36;85.92
60974;BME280;46846;51.528;5.076;2023-03-13T00:59:13;99589.03;;;6.32;86.08
60974;BME280;46846;51.528;5.076;2023-03-13T01:01:38;99588.28;;;6.28;86.26
60974;BME280;46846;51.528;5.076;2023-03-13T01:04:07;99574.81;;;6.36;85.75
60974;BME280;46846;51.528;5.076;2023-03-13T01:06:35;99569.78;;;6.28;86.24
60974;BME280;46846;51.528;5.076;2023-03-13T01:09:02;99559.41;;;6.24;86.51
60974;BME280;46846;51.528;5.076;2023-03-13T01:11:34;99565.94;;;6.37;86.08
60974;BME280;46846;51.528;5.076;2023-03-13T01:14:02;99551.03;;;6.36;86.36
60974;BME280;46846;51.528;5.076;2023-03-13T01:16:29;99557.19;;;6.35;85.99
60974;BME280;46846;51.528;5.076;2023-03-13T01:18:58;99539.81;;;6.29;86.10
60974;BME280;46846;51.528;5.076;2023-03-13T01:21:24;99534.34;;;6.34;86.64
60974;BME280;46846;51.528;5.076;2023-03-13T01:23:51;99538.25;;;6.24;86.60
60974;BME280;46846;51.528;5.076;2023-03-13T01:26:17;99530.28;;;6.25;86.23
60974;BME280;46846;51.528;5.076;2023-03-13T01:28:43;99527.75;;;6.22;86.69
60974;BME280;46846;51.528;5.076;2023-03-13T01:31:17;99528.06;;;6.14;87.14
60974;BME280;46846;51.528;5.076;2023-03-13T01:33:43;99517.19;;;6.22;86.93
60974;BME280;46846;51.528;5.076;2023-03-13T01:36:09;99509.56;;;6.14;87.00
60974;BME280;46846;51.528;5.076;2023-03-13T01:38:35;99510.34;;;6.17;87.43
60974;BME280;46846;51.528;5.076;2023-03-13T01:41:02;99507.59;;;6.20;87.25
60974;BME280;46846;51.528;5.076;2023-03-13T01:43:30;99493.44;;;6.21;86.81
60974;BME280;46846;51.528;5.076;2023-03-13T01:48:30;99489.09;;;6.20;87.03
60974;BME280;46846;51.528;5.076;2023-03-13T01:50:59;99482.00;;;6.22;87.04
60974;BME280;46846;51.528;5.076;2023-03-13T01:53:27;99469.63;;;6.22;87.78
60974;BME280;46846;51.528;5.076;2023-03-13T01:55:54;99460.34;;;6.12;88.26
60974;BME280;46846;51.528;5.076;2023-03-13T01:58:20;99454.00;;;6.16;88.07
60974;BME280;46846;51.528;5.076;2023-03-13T02:00:46;99451.16;;;6.22;88.33
60974;BME280;46846;51.528;5.076;2023-03-13T02:03:14;99440.72;;;6.19;87.94
60974;BME280;46846;51.528;5.076;2023-03-13T02:05:43;99429.28;;;6.19;88.32
60974;BME280;46846;51.528;5.076;2023-03-13T02:08:14;99436.41;;;6.17;87.85
60974;BME280;46846;51.528;5.076;2023-03-13T02:10:48;99415.28;;;6.17;88.22
60974;BME280;46846;51.528;5.076;2023-03-13T02:13:16;99413.56;;;6.15;88.56
60974;BME280;46846;51.528;5.076;2023-03-13T02:15:41;99403.66;;;6.21;88.25
60974;BME280;46846;51.528;5.076;2023-03-13T02:18:07;99395.13;;;6.14;88.51
60974;BME280;46846;51.528;5.076;2023-03-13T02:20:32;99392.44;;;6.15;88.52
60974;BME280;46846;51.528;5.076;2023-03-13T02:25:42;99399.38;;;6.18;89.17
60974;BME280;46846;51.528;5.076;2023-03-13T02:28:20;99393.28;;;6.16;88.84
60974;BME280;46846;51.528;5.076;2023-03-13T02:30:48;99395.84;;;6.18;88.68
60974;BME280;46846;51.528;5.076;2023-03-13T02:33:15;99386.03;;;6.21;88.84
60974;BME280;46846;51.528;5.076;2023-03-13T02:35:43;99391.06;;;6.27;88.93
60974;BME280;46846;51.528;5.076;2023-03-13T02:38:13;99392.84;;;6.27;88.35
60974;BME280;46846;51.528;5.076;2023-03-13T02:40:43;99389.47;;;6.23;88.84
60974;BME280;46846;51.528;5.076;2023-03-13T02:43:31;99379.63;;;6.27;88.76
60974;BME280;46846;51.528;5.076;2023-03-13T02:46:08;99381.31;;;6.29;88.63
60974;BME280;46846;51.528;5.076;2023-03-13T02:48:37;99370.78;;;6.28;89.27
60974;BME280;46846;51.528;5.076;2023-03-13T02:51:08;99373.13;;;6.36;89.06
60974;BME280;46846;51.528;5.076;2023-03-13T02:53:36;99382.97;;;6.32;89.32
60974;BME280;46846;51.528;5.076;2023-03-13T02:56:02;99384.69;;;6.33;88.92
60974;BME280;46846;51.528;5.076;2023-03-13T02:58:36;99374.78;;;6.38;89.48
60974;BME280;46846;51.528;5.076;2023-03-13T03:01:02;99375.63;;;6.39;89.61
60974;BME280;46846;51.528;5.076;2023-03-13T03:03:32;99379.16;;;6.39;88.74
60974;BME280;46846;51.528;5.076;2023-03-13T03:05:57;99379.19;;;6.38;89.34
60974;BME280;46846;51.528;5.076;2023-03-13T03:08:23;99382.47;;;6.45;89.08
60974;BME280;46846;51.528;5.076;2023-03-13T03:10:48;99381.53;;;6.46;89.16
60974;BME280;46846;51.528;5.076;2023-03-13T03:13:13;99371.03;;;6.44;89.08
60974;BME280;46846;51.528;5.076;2023-03-13T03:15:39;99369.91;;;6.50;89.21
60974;BME280;46846;51.528;5.076;2023-03-13T03:18:04;99365.75;;;6.44;89.42
60974;BME280;46846;51.528;5.076;2023-03-13T03:20:30;99362.97;;;6.47;89.30
60974;BME280;46846;51.528;5.076;2023-03-13T03:22:55;99353.06;;;6.52;89.32
60974;BME280;46846;51.528;5.076;2023-03-13T03:25:20;99364.25;;;6.59;89.65
60974;BME280;46846;51.528;5.076;2023-03-13T03:27:46;99350.38;;;6.54;89.02
60974;BME280;46846;51.528;5.076;2023-03-13T03:30:11;99360.81;;;6.57;89.37
60974;BME280;46846;51.528;5.076;2023-03-13T03:32:36;99361.72;;;6.56;89.92
60974;BME280;46846;51.528;5.076;2023-03-13T03:35:02;99364.44;;;6.54;89.58
60974;BME280;46846;51.528;5.076;2023-03-13T03:37:27;99354.78;;;6.53;89.75
60974;BME280;46846;51.528;5.076;2023-03-13T03:39:53;99354.59;;;6.58;89.40
60974;BME280;46846;51.528;5.076;2023-03-13T03:42:18;99356.41;;;6.57;89.88
60974;BME280;46846;51.528;5.076;2023-03-13T03:44:44;99363.53;;;6.55;89.73
60974;BME280;46846;51.528;5.076;2023-03-13T03:47:09;99367.03;;;6.56;90.08
60974;BME280;46846;51.528;5.076;2023-03-13T03:49:34;99368.63;;;6.60;89.73
60974;BME280;46846;51.528;5.076;2023-03-13T03:52:00;99357.91;;;6.63;89.78
60974;BME280;46846;51.528;5.076;2023-03-13T03:54:25;99349.13;;;6.63;89.90
60974;BME280;46846;51.528;5.076;2023-03-13T03:56:50;99352.81;;;6.59;89.82
60974;BME280;46846;51.528;5.076;2023-03-13T03:59:16;99351.50;;;6.69;89.89
60974;BME280;46846;51.528;5.076;2023-03-13T04:01:41;99345.56;;;6.64;90.05
60974;BME280;46846;51.528;5.076;2023-03-13T04:04:07;99341.00;;;6.67;89.96
60974;BME280;46846;51.528;5.076;2023-03-13T04:06:32;99333.91;;;6.68;90.34
60974;BME280;46846;51.528;5.076;2023-03-13T04:08:57;99344.50;;;6.68;90.25
60974;BME280;46846;51.528;5.076;2023-03-13T04:11:23;99327.50;;;6.74;90.26
60974;BME280;46846;51.528;5.076;2023-03-13T04:13:48;99322.22;;;6.74;90.38
60974;BME280;46846;51.528;5.076;2023-03-13T04:16:13;99321.22;;;6.76;90.34
60974;BME280;46846;51.528;5.076;2023-03-13T04:18:39;99316.94;;;6.74;90.41
60974;BME280;46846;51.528;5.076;2023-03-13T04:21:04;99310.44;;;6.81;89.82
60974;BME280;46846;51.528;5.076;2023-03-13T04:23:30;99311.25;;;6.83;89.87
60974;BME280;46846;51.528;5.076;2023-03-13T04:25:55;99305.84;;;6.86;89.96
60974;BME280;46846;51.528;5.076;2023-03-13T04:28:20;99280.53;;;6.80;89.75
60974;BME280;46846;51.528;5.076;2023-03-13T04:30:46;99290.75;;;6.88;89.77
60974;BME280;46846;51.528;5.076;2023-03-13T04:33:11;99295.19;;;6.88;89.74
60974;BME280;46846;51.528;5.076;2023-03-13T04:35:37;99297.69;;;6.91;90.38
60974;BME280;46846;51.528;5.076;2023-03-13T04:38:02;99295.13;;;6.89;89.72
60974;BME280;46846;51.528;5.076;2023-03-13T04:40:27;99288.66;;;6.96;90.45
60974;BME280;46846;51.528;5.076;2023-03-13T04:42:53;99291.47;;;6.92;89.91
60974;BME280;46846;51.528;5.076;2023-03-13T04:45:18;99285.19;;;6.94;90.46
60974;BME280;46846;51.528;5.076;2023-03-13T04:47:45;99300.34;;;6.91;90.39
60974;BME280;46846;51.528;5.076;2023-03-13T04:50:10;99287.84;;;6.94;90.05
60974;BME280;46846;51.528;5.076;2023-03-13T04:52:36;99282.44;;;6.97;89.91
60974;BME280;46846;51.528;5.076;2023-03-13T04:55:01;99269.28;;;6.96;90.16
60974;BME280;46846;51.528;5.076;2023-03-13T04:57:27;99282.16;;;7.04;90.01
60974;BME280;46846;51.528;5.076;2023-03-13T04:59:52;99255.97;;;6.97;89.78
60974;BME280;46846;51.528;5.076;2023-03-13T05:02:17;99252.47;;;6.97;90.24
60974;BME280;46846;51.528;5.076;2023-03-13T05:04:42;99256.63;;;7.03;90.60
60974;BME280;46846;51.528;5.076;2023-03-13T05:07:08;99262.06;;;7.00;89.91
60974;BME280;46846;51.528;5.076;2023-03-13T05:09:33;99255.50;;;7.08;90.23
60974;BME280;46846;51.528;5.076;2023-03-13T05:11:58;99252.84;;;7.08;89.89
60974;BME280;46846;51.528;5.076;2023-03-13T05:14:24;99248.50;;;7.07;89.92
60974;BME280;46846;51.528;5.076;2023-03-13T05:16:49;99242.41;;;7.05;90.20
60974;BME280;46846;51.528;5.076;2023-03-13T05:19:15;99251.56;;;7.17;90.98
60974;BME280;46846;51.528;5.076;2023-03-13T05:21:41;99255.00;;;7.19;90.08
60974;BME280;46846;51.528;5.076;2023-03-13T05:24:06;99259.66;;;7.14;90.00
60974;BME280;46846;51.528;5.076;2023-03-13T05:26:32;99247.25;;;7.15;90.18
60974;BME280;46846;51.528;5.076;2023-03-13T05:28:57;99254.34;;;7.14;90.44
60974;BME280;46846;51.528;5.076;2023-03-13T05:31:22;99248.91;;;7.17;90.38
60974;BME280;46846;51.528;5.076;2023-03-13T05:33:47;99249.56;;;7.22;90.07
60974;BME280;46846;51.528;5.076;2023-03-13T05:36:13;99253.16;;;7.21;90.11
60974;BME280;46846;51.528;5.076;2023-03-13T05:38:38;99241.06;;;7.16;90.35
60974;BME280;46846;51.528;5.076;2023-03-13T05:41:04;99247.69;;;7.24;90.09
60974;BME280;46846;51.528;5.076;2023-03-13T05:43:29;99240.63;;;7.25;90.36
60974;BME280;46846;51.528;5.076;2023-03-13T05:45:54;99244.06;;;7.27;90.36
60974;BME280;46846;51.528;5.076;2023-03-13T05:48:20;99247.41;;;7.31;89.99
60974;BME280;46846;51.528;5.076;2023-03-13T05:50:45;99259.00;;;7.28;90.40
60974;BME280;46846;51.528;5.076;2023-03-13T05:53:11;99253.69;;;7.28;90.47
60974;BME280;46846;51.528;5.076;2023-03-13T05:55:36;99255.41;;;7.29;90.25
60974;BME280;46846;51.528;5.076;2023-03-13T05:58:02;99250.28;;;7.26;90.50
60974;BME280;46846;51.528;5.076;2023-03-13T06:00:27;99248.06;;;7.36;90.26
60974;BME280;46846;51.528;5.076;2023-03-13T06:02:52;99244.84;;;7.29;90.31
60974;BME280;46846;51.528;5.076;2023-03-13T06:05:18;99235.84;;;7.33;90.31
60974;BME280;46846;51.528;5.076;2023-03-13T06:07:43;99235.78;;;7.35;90.43
60974;BME280;46846;51.528;5.076;2023-03-13T06:10:09;99239.53;;;7.29;90.12
60974;BME280;46846;51.528;5.076;2023-03-13T06:12:34;99231.31;;;7.35;90.66
60974;BME280;46846;51.528;5.076;2023-03-13T06:15:00;99236.56;;;7.37;90.36
60974;BME280;46846;51.528;5.076;2023-03-13T06:17:25;99242.91;;;7.33;90.45
60974;BME280;46846;51.528;5.076;2023-03-13T06:19:51;99229.63;;;7.34;90.42
60974;BME280;46846;51.528;5.076;2023-03-13T06:22:16;99240.97;;;7.36;90.26
60974;BME280;46846;51.528;5.076;2023-03-13T06:24:42;99238.13;;;7.41;90.28
60974;BME280;46846;51.528;5.076;2023-03-13T06:27:09;99231.03;;;7.42;90.29
60974;BME280;46846;51.528;5.076;2023-03-13T06:29:35;99241.47;;;7.45;90.00
60974;BME280;46846;51.528;5.076;2023-03-13T06:32:00;99235.56;;;7.39;90.21
60974;BME280;46846;51.528;5.076;2023-03-13T06:34:25;99240.63;;;7.44;90.40
60974;BME280;46846;51.528;5.076;2023-03-13T06:36:51;99236.09;;;7.46;90.21
60974;BME280;46846;51.528;5.076;2023-03-13T06:39:16;99239.69;;;7.45;90.23
60974;BME280;46846;51.528;5.076;2023-03-13T06:41:41;99221.00;;;7.48;89.92
60974;BME280;46846;51.528;5.076;2023-03-13T06:44:07;99227.22;;;7.47;90.16
60974;BME280;46846;51.528;5.076;2023-03-13T06:46:32;99228.31;;;7.43;90.24
60974;BME280;46846;51.528;5.076;2023-03-13T06:48:57;99233.34;;;7.49;90.30
60974;BME280;46846;51.528;5.076;2023-03-13T06:51:23;99240.06;;;7.57;90.29
60974;BME280;46846;51.528;5.076;2023-03-13T06:53:50;99234.03;;;7.53;90.26
60974;BME280;46846;51.528;5.076;2023-03-13T06:56:16;99226.00;;;7.55;89.87
60974;BME280;46846;51.528;5.076;2023-03-13T06:58:42;99226.59;;;7.61;89.95
60974;BME280;46846;51.528;5.076;2023-03-13T07:01:12;99229.13;;;7.63;89.47
60974;BME280;46846;51.528;5.076;2023-03-13T07:03:38;99223.47;;;7.53;90.08
60974;BME280;46846;51.528;5.076;2023-03-13T07:06:05;99223.22;;;7.58;90.07
60974;BME280;46846;51.528;5.076;2023-03-13T07:08:31;99221.44;;;7.58;89.81
60974;BME280;46846;51.528;5.076;2023-03-13T07:10:59;99210.06;;;7.56;90.03
60974;BME280;46846;51.528;5.076;2023-03-13T07:13:25;99218.66;;;7.61;89.95
60974;BME280;46846;51.528;5.076;2023-03-13T07:15:51;99225.78;;;7.59;90.06
60974;BME280;46846;51.528;5.076;2023-03-13T07:18:16;99222.59;;;7.52;90.55
60974;BME280;46846;51.528;5.076;2023-03-13T07:20:41;99213.59;;;7.57;90.30
60974;BME280;46846;51.528;5.076;2023-03-13T07:23:07;99210.13;;;7.55;90.37
60974;BME280;46846;51.528;5.076;2023-03-13T07:25:32;99219.00;;;7.53;90.43
60974;BME280;46846;51.528;5.076;2023-03-13T07:27:58;99222.28;;;7.59;90.37
60974;BME280;46846;51.528;5.076;2023-03-13T07:30:25;99228.38;;;7.61;90.30
60974;BME280;46846;51.528;5.076;2023-03-13T07:32:51;99231.19;;;7.58;90.56
60974;BME280;46846;51.528;5.076;2023-03-13T07:35:16;99234.88;;;7.53;90.75
60974;BME280;46846;51.528;5.076;2023-03-13T07:37:42;99235.47;;;7.60;90.95
60974;BME280;46846;51.528;5.076;2023-03-13T07:40:07;99241.59;;;7.61;90.72
60974;BME280;46846;51.528;5.076;2023-03-13T07:42:33;99241.59;;;7.61;90.86
60974;BME280;46846;51.528;5.076;2023-03-13T07:44:58;99232.72;;;7.62;90.47
60974;BME280;46846;51.528;5.076;2023-03-13T07:47:24;99238.19;;;7.59;90.85
60974;BME280;46846;51.528;5.076;2023-03-13T07:49:49;99233.59;;;7.62;90.85
60974;BME280;46846;51.528;5.076;2023-03-13T07:52:14;99228.31;;;7.62;90.62
60974;BME280;46846;51.528;5.076;2023-03-13T07:54:40;99218.56;;;7.63;90.75
60974;BME280;46846;51.528;5.076;2023-03-13T07:57:05;99227.00;;;7.71;90.57
60974;BME280;46846;51.528;5.076;2023-03-13T07:59:30;99222.72;;;7.69;90.48
60974;BME280;46846;51.528;5.076;2023-03-13T08:01:56;99224.44;;;7.70;90.45
60974;BME280;46846;51.528;5.076;2023-03-13T08:04:21;99222.56;;;7.72;90.48
60974;BME280;46846;51.528;5.076;2023-03-13T08:06:46;99214.47;;;7.75;90.61
60974;BME280;46846;51.528;5.076;2023-03-13T08:09:12;99215.38;;;7.74;90.53
60974;BME280;46846;51.528;5.076;2023-03-13T08:11:38;99206.44;;;7.76;90.32
60974;BME280;46846;51.528;5.076;2023-03-13T08:14:09;99221.47;;;7.76;90.46
60974;BME280;46846;51.528;5.076;2023-03-13T08:16:34;99210.72;;;7.79;90.49
60974;BME280;46846;51.528;5.076;2023-03-13T08:19:01;99227.38;;;7.81;90.48
60974;BME280;46846;51.528;5.076;2023-03-13T08:21:34;99223.03;;;7.80;90.52
60974;BME280;46846;51.528;5.076;2023-03-13T08:24:02;99229.97;;;7.83;90.40
60974;BME280;46846;51.528;5.076;2023-03-13T08:26:30;99232.97;;;7.94;90.38
60974;BME280;46846;51.528;5.076;2023-03-13T08:29:01;99219.91;;;7.89;90.15
60974;BME280;46846;51.528;5.076;2023-03-13T08:31:32;99234.09;;;7.88;90.07
60974;BME280;46846;51.528;5.076;2023-03-13T08:33:58;99243.69;;;7.91;90.46
60974;BME280;46846;51.528;5.076;2023-03-13T08:36:27;99236.75;;;7.88;90.63
60974;BME280;46846;51.528;5.076;2023-03-13T08:38:54;99225.94;;;7.93;90.33
60974;BME280;46846;51.528;5.076;2023-03-13T08:41:24;99235.63;;;7.94;90.36
60974;BME280;46846;51.528;5.076;2023-03-13T08:43:54;99226.56;;;7.98;90.37
60974;BME280;46846;51.528;5.076;2023-03-13T08:46:20;99209.03;;;7.96;90.33
60974;BME280;46846;51.528;5.076;2023-03-13T08:48:53;99197.19;;;8.03;90.26
60974;BME280;46846;51.528;5.076;2023-03-13T08:51:20;99190.97;;;8.04;90.43
60974;BME280;46846;51.528;5.076;2023-03-13T08:53:46;99190.88;;;8.05;90.02
60974;BME280;46846;51.528;5.076;2023-03-13T08:56:13;99193.53;;;8.05;90.23
60974;BME280;46846;51.528;5.076;2023-03-13T08:58:39;99182.00;;;8.06;90.17
60974;BME280;46846;51.528;5.076;2023-03-13T09:01:10;99175.00;;;8.05;89.95
60974;BME280;46846;51.528;5.076;2023-03-13T09:03:36;99172.03;;;8.12;90.21
60974;BME280;46846;51.528;5.076;2023-03-13T09:06:02;99165.09;;;8.09;90.27
60974;BME280;46846;51.528;5.076;2023-03-13T09:08:30;99140.78;;;8.18;90.05
60974;BME280;46846;51.528;5.076;2023-03-13T09:10:58;99157.84;;;8.13;89.87
60974;BME280;46846;51.528;5.076;2023-03-13T09:13:25;99147.31;;;8.11;90.18
60974;BME280;46846;51.528;5.076;2023-03-13T09:16:00;99154.81;;;8.20;90.21
60974;BME280;46846;51.528;5.076;2023-03-13T09:18:27;99148.81;;;8.17;90.03
60974;BME280;46846;51.528;5.076;2023-03-13T09:20:54;99145.06;;;8.21;90.06
60974;BME280;46846;51.528;5.076;2023-03-13T09:23:20;99147.63;;;8.23;90.18
60974;BME280;46846;51.528;5.076;2023-03-13T09:25:47;99139.44;;;8.27;90.01
60974;BME280;46846;51.528;5.076;2023-03-13T09:28:18;99134.16;;;8.27;90.03
60974;BME280;46846;51.528;5.076;2023-03-13T09:30:43;99133.91;;;8.32;90.09
60974;BME280;46846;51.528;5.076;2023-03-13T09:33:09;99132.97;;;8.33;90.04
60974;BME280;46846;51.528;5.076;2023-03-13T09:35:34;99133.75;;;8.35;89.94
60974;BME280;46846;51.528;5.076;2023-03-13T09:38:02;99131.81;;;8.39;90.01
60974;BME280;46846;51.528;5.076;2023-03-13T09:40:27;99119.13;;;8.44;90.00
60974;BME280;46846;51.528;5.076;2023-03-13T09:42:54;99115.53;;;8.45;89.87
60974;BME280;46846;51.528;5.076;2023-03-13T09:47:59;99129.59;;;8.47;90.18
60974;BME280;46846;51.528;5.076;2023-03-13T09:50:30;99121.53;;;8.48;89.67
60974;BME280;46846;51.528;5.076;2023-03-13T09:53:12;99121.53;;;8.48;89.71
60974;BME280;46846;51.528;5.076;2023-03-13T09:55:40;99111.50;;;8.55;89.34
60974;BME280;46846;51.528;5.076;2023-03-13T09:58:16;99098.56;;;8.49;89.74
60974;BME280;46846;51.528;5.076;2023-03-13T10:01:03;99135.44;;;8.54;89.45
60974;BME280;46846;51.528;5.076;2023-03-13T10:03:31;99102.88;;;8.68;89.47
60974;BME280;46846;51.528;5.076;2023-03-13T10:06:01;99096.66;;;8.69;89.10
60974;BME280;46846;51.528;5.076;2023-03-13T10:08:32;99106.47;;;8.67;89.18
60974;BME280;46846;51.528;5.076;2023-03-13T10:11:24;99091.44;;;8.67;89.03
60974;BME280;46846;51.528;5.076;2023-03-13T10:14:13;99098.25;;;8.71;88.98
60974;BME280;46846;51.528;5.076;2023-03-13T10:16:46;99086.13;;;8.67;89.12
60974;BME280;46846;51.528;5.076;2023-03-13T10:19:16;99103.22;;;8.78;89.34
60974;BME280;46846;51.528;5.076;2023-03-13T10:21:46;99089.97;;;8.78;88.60
60974;BME280;46846;51.528;5.076;2023-03-13T10:24:22;99091.53;;;8.82;88.44
60974;BME280;46846;51.528;5.076;2023-03-13T10:26:51;99079.97;;;8.83;88.65
60974;BME280;46846;51.528;5.076;2023-03-13T10:29:27;99071.94;;;8.84;88.55
60974;BME280;46846;51.528;5.076;2023-03-13T10:32:12;99094.09;;;8.83;88.44
60974;BME280;46846;51.528;5.076;2023-03-13T10:34:58;99072.34;;;8.93;88.43
60974;BME280;46846;51.528;5.076;2023-03-13T10:37:29;99072.00;;;8.99;88.16
60974;BME280;46846;51.528;5.076;2023-03-13T10:40:12;99075.59;;;8.98;88.19
60974;BME280;46846;51.528;5.076;2023-03-13T10:42:44;99061.41;;;8.99;88.26
60974;BME280;46846;51.528;5.076;2023-03-13T10:45:15;99063.38;;;8.95;88.42
60974;BME280;46846;51.528;5.076;2023-03-13T10:47:41;99064.28;;;8.94;88.46
60974;BME280;46846;51.528;5.076;2023-03-13T10:50:17;99073.72;;;9.00;88.14
60974;BME280;46846;51.528;5.076;2023-03-13T10:52:48;99068.84;;;9.08;87.97
60974;BME280;46846;51.528;5.076;2023-03-13T10:55:19;99054.03;;;9.04;88.23
60974;BME280;46846;51.528;5.076;2023-03-13T10:57:58;99065.31;;;9.08;88.30
60974;BME280;46846;51.528;5.076;2023-03-13T11:00:35;99058.31;;;9.07;88.56
60974;BME280;46846;51.528;5.076;2023-03-13T11:03:06;99060.19;;;9.21;88.56
60974;BME280;46846;51.528;5.076;2023-03-13T11:05:40;99062.88;;;9.35;87.83
60974;BME280;46846;51.528;5.076;2023-03-13T11:13:39;99048.69;;;9.36;87.89
60974;BME280;46846;51.528;5.076;2023-03-13T11:16:27;99049.03;;;9.30;88.09
60974;BME280;46846;51.528;5.076;2023-03-13T11:21:36;99037.63;;;9.28;88.03
60974;BME280;46846;51.528;5.076;2023-03-13T11:24:12;99033.09;;;9.30;87.78
60974;BME280;46846;51.528;5.076;2023-03-13T11:32:49;99026.94;;;9.29;86.78
60974;BME280;46846;51.528;5.076;2023-03-13T11:37:54;99012.34;;;9.37;86.28
60974;BME280;46846;51.528;5.076;2023-03-13T11:40:30;99016.91;;;9.35;86.62
60974;BME280;46846;51.528;5.076;2023-03-13T11:48:10;98994.88;;;9.63;84.85
60974;BME280;46846;51.528;5.076;2023-03-13T11:53:25;98986.97;;;9.62;85.80
60974;BME280;46846;51.528;5.076;2023-03-13T11:56:14;98984.25;;;9.63;85.79
60974;BME280;46846;51.528;5.076;2023-03-13T12:01:16;98996.88;;;9.74;85.24
60974;BME280;46846;51.528;5.076;2023-03-13T12:04:05;98973.84;;;9.75;85.88
60974;BME280;46846;51.528;5.076;2023-03-13T12:06:37;98968.69;;;9.71;85.80
60974;BME280;46846;51.528;5.076;2023-03-13T12:11:53;98948.97;;;9.76;85.94
60974;BME280;46846;51.528;5.076;2023-03-13T12:14:30;98947.28;;;9.75;85.82
60974;BME280;46846;51.528;5.076;2023-03-13T12:17:03;98956.66;;;9.80;85.59
60974;BME280;46846;51.528;5.076;2023-03-13T12:19:42;98946.91;;;9.81;85.57
60974;BME280;46846;51.528;5.076;2023-03-13T12:22:16;98944.78;;;9.86;85.22
60974;BME280;46846;51.528;5.076;2023-03-13T12:25:12;98939.47;;;9.86;85.41
60974;BME280;46846;51.528;5.076;2023-03-13T12:27:44;98932.66;;;9.82;85.70
60974;BME280;46846;51.528;5.076;2023-03-13T12:33:20;98950.31;;;9.83;85.36
60974;BME280;46846;51.528;5.076;2023-03-13T12:35:55;98927.44;;;9.95;84.57
60974;BME280;46846;51.528;5.076;2023-03-13T12:38:40;98918.59;;;9.94;84.31
60974;BME280;46846;51.528;5.076;2023-03-13T12:41:27;98918.88;;;9.90;84.20
60974;BME280;46846;51.528;5.076;2023-03-13T12:43:55;98921.25;;;9.94;83.43
60974;BME280;46846;51.528;5.076;2023-03-13T12:49:01;98909.13;;;9.90;83.76
60974;BME280;46846;51.528;5.076;2023-03-13T12:51:51;98894.59;;;9.96;82.89
60974;BME280;46846;51.528;5.076;2023-03-13T12:59:55;98910.25;;;10.01;82.13
60974;BME280;46846;51.528;5.076;2023-03-13T13:02:27;98896.66;;;10.05;82.04
60974;BME280;46846;51.528;5.076;2023-03-13T13:04:54;98887.94;;;10.03;82.44
60974;BME280;46846;51.528;5.076;2023-03-13T13:10:18;98877.66;;;10.11;81.54
60974;BME280;46846;51.528;5.076;2023-03-13T13:12:47;98887.47;;;10.11;82.12
60974;BME280;46846;51.528;5.076;2023-03-13T13:15:32;98895.63;;;10.08;82.04
60974;BME280;46846;51.528;5.076;2023-03-13T13:23:26;98888.38;;;10.10;81.91
60974;BME280;46846;51.528;5.076;2023-03-13T13:25:54;98870.25;;;10.17;80.21
60974;BME280;46846;51.528;5.076;2023-03-13T13:28:33;98874.53;;;10.19;81.05
60974;BME280;46846;51.528;5.076;2023-03-13T13:30:59;98868.69;;;10.27;79.15
60974;BME280;46846;51.528;5.076;2023-03-13T13:33:34;98885.03;;;10.21;81.77
60974;BME280;46846;51.528;5.076;2023-03-13T13:38:36;98875.84;;;10.26;81.57
60974;BME280;46846;51.528;5.076;2023-03-13T13:43:43;98854.94;;;10.35;81.38
60974;BME280;46846;51.528;5.076;2023-03-13T13:51:37;98846.56;;;10.41;81.37
60974;BME280;46846;51.528;5.076;2023-03-13T13:54:33;98849.97;;;10.43;81.18
60974;BME280;46846;51.528;5.076;2023-03-13T13:57:20;98847.03;;;10.48;80.69
60974;BME280;46846;51.528;5.076;2023-03-13T13:59:49;98843.31;;;10.50;81.09
60974;BME280;46846;51.528;5.076;2023-03-13T14:02:19;98842.75;;;10.45;80.23
60974;BME280;46846;51.528;5.076;2023-03-13T14:10:28;98837.59;;;10.57;80.30
60974;BME280;46846;51.528;5.076;2023-03-13T14:12:57;98831.63;;;10.53;80.89
60974;BME280;46846;51.528;5.076;2023-03-13T14:15:25;98832.06;;;10.60;80.00
60974;BME280;46846;51.528;5.076;2023-03-13T14:18:08;98828.44;;;10.61;79.95
60974;BME280;46846;51.528;5.076;2023-03-13T14:23:45;98825.69;;;10.62;80.57
60974;BME280;46846;51.528;5.076;2023-03-13T14:26:19;98826.88;;;10.71;80.34
60974;BME280;46846;51.528;5.076;2023-03-13T14:28:56;98819.00;;;10.70;80.17
60974;BME280;46846;51.528;5.076;2023-03-13T14:31:32;98807.69;;;10.66;80.44
60974;BME280;46846;51.528;5.076;2023-03-13T14:34:11;98806.97;;;10.64;80.63